Time;durP1;ratioP1;P1;durP2;ratioP2;P2;SDS_P1;SDS_P2;PMS_P1;PMS_P2;Temp;Humidity;BMP_temperature;BMP_pressure;BME280_temperature;BME280_humidity;BME280_pressure;Samples;Min_cycle;Max_cycle;Signal;HPM_P1;HPM_P2
2022/03/31 00:00:13;;;;;;;6.95;1.00;;;;;;;;;;5067462;28;20738;-57
2022/03/31 00:02:39;;;;;;;2.15;0.68;;;;;;;;;;5066886;28;20102;-57
2022/03/31 00:05:05;;;;;;;5.45;0.47;;;;;;;;;;5066685;28;20044;-57
2022/03/31 00:07:30;;;;;;;10.68;0.80;;;;;;;;;;5067242;28;20514;-56
2022/03/31 00:09:56;;;;;;;1.27;0.60;;;;;;;;;;5059324;28;20037;-57
2022/03/31 00:12:21;;;;;;;3.65;0.65;;;;;;;;;;5068233;28;20098;-57
2022/03/31 00:14:47;;;;;;;10.95;0.68;;;;;;;;;;5067273;28;20029;-57
2022/03/31 00:17:13;;;;;;;4.43;0.77;;;;;;;;;;5066064;28;20040;-56
2022/03/31 00:19:39;;;;;;;2.05;0.43;;;;;;;;;;5065449;28;20069;-57
2022/03/31 00:22:04;;;;;;;2.92;0.50;;;;;;;;;;5071503;28;20033;-57
2022/03/31 00:24:30;;;;;;;2.30;0.30;;;;;;;;;;5065198;28;20483;-57
2022/03/31 00:26:55;;;;;;;0.88;0.22;;;;;;;;;;5069279;28;20032;-57
2022/03/31 00:29:22;;;;;;;6.60;1.17;;;;;;;;;;5061587;28;20022;-58
2022/03/31 00:31:48;;;;;;;6.25;0.60;;;;;;;;;;5065252;28;20053;-57
2022/03/31 00:34:13;;;;;;;5.88;0.60;;;;;;;;;;5065466;28;20079;-57
2022/03/31 00:36:39;;;;;;;3.13;0.60;;;;;;;;;;5066960;28;20028;-57
2022/03/31 00:41:48;;;;;;;5.25;0.70;;;;;;;;;;5066684;28;20525;-57
2022/03/31 00:44:14;;;;;;;5.03;0.60;;;;;;;;;;5066096;28;20044;-57
2022/03/31 00:46:51;;;;;;;2.65;0.70;;;;;;;;;;5064805;28;20033;-56
2022/03/31 00:49:17;;;;;;;2.45;0.57;;;;;;;;;;5066413;28;20391;-57
2022/03/31 00:51:43;;;;;;;2.53;0.50;;;;;;;;;;5060330;28;20058;-57
2022/03/31 00:54:09;;;;;;;8.52;0.80;;;;;;;;;;5064125;28;20032;-57
2022/03/31 00:56:35;;;;;;;5.40;1.20;;;;;;;;;;5066596;28;20043;-56
2022/03/31 00:59:04;;;;;;;12.15;0.68;;;;;;;;;;5064136;28;20406;-56
2022/03/31 01:01:31;;;;;;;1.75;0.55;;;;;;;;;;5058399;28;20039;-57
2022/03/31 01:03:59;;;;;;;1.98;0.90;;;;;;;;;;5066284;28;20120;-57
2022/03/31 01:06:24;;;;;;;7.53;0.80;;;;;;;;;;5060415;28;20085;-57
2022/03/31 01:08:50;;;;;;;7.95;1.30;;;;;;;;;;5063873;28;20443;-58
2022/03/31 01:11:15;;;;;;;6.40;0.70;;;;;;;;;;5066321;28;20035;-58
2022/03/31 01:13:41;;;;;;;3.25;0.55;;;;;;;;;;5065340;28;20055;-57
2022/03/31 01:16:06;;;;;;;7.97;0.60;;;;;;;;;;5071489;28;20505;-57
2022/03/31 01:18:32;;;;;;;4.90;0.47;;;;;;;;;;5064924;28;20021;-57
2022/03/31 01:20:57;;;;;;;3.70;0.80;;;;;;;;;;5065620;28;20256;-57
2022/03/31 01:23:25;;;;;;;4.03;1.10;;;;;;;;;;5070960;28;20081;-57
2022/03/31 01:25:50;;;;;;;4.63;0.60;;;;;;;;;;5067415;28;20021;-57
2022/03/31 01:28:16;;;;;;;5.00;0.52;;;;;;;;;;5063637;28;20413;-57
2022/03/31 01:30:41;;;;;;;3.90;0.50;;;;;;;;;;5064611;28;20037;-57
2022/03/31 01:33:07;;;;;;;7.63;0.70;;;;;;;;;;5065060;28;20036;-58
2022/03/31 01:35:32;;;;;;;6.53;0.80;;;;;;;;;;5061716;28;20519;-57
2022/03/31 01:37:58;;;;;;;1.83;0.50;;;;;;;;;;5061737;28;20046;-57
2022/03/31 01:40:23;;;;;;;8.88;1.08;;;;;;;;;;5067792;28;20078;-57
2022/03/31 01:42:49;;;;;;;9.18;1.02;;;;;;;;;;5064090;28;20043;-58
2022/03/31 01:45:16;;;;;;;5.25;0.63;;;;;;;;;;5065085;28;20028;-57
2022/03/31 01:47:42;;;;;;;7.78;1.13;;;;;;;;;;5064359;28;20135;-56
2022/03/31 01:50:09;;;;;;;2.90;0.35;;;;;;;;;;5059386;28;20040;-57
2022/03/31 01:52:35;;;;;;;3.22;0.85;;;;;;;;;;5066252;28;20024;-57
2022/03/31 01:55:00;;;;;;;6.35;1.05;;;;;;;;;;5065793;28;20082;-57
2022/03/31 01:57:26;;;;;;;2.72;0.47;;;;;;;;;;5066806;28;20305;-58
2022/03/31 01:59:51;;;;;;;5.05;0.40;;;;;;;;;;5062098;28;20106;-57
2022/03/31 02:02:17;;;;;;;0.85;0.50;;;;;;;;;;5065575;28;20475;-57
2022/03/31 02:04:42;;;;;;;3.03;0.60;;;;;;;;;;5065565;28;20036;-58
2022/03/31 02:07:11;;;;;;;3.45;0.50;;;;;;;;;;5062393;28;20411;-56
2022/03/31 02:09:36;;;;;;;8.40;0.70;;;;;;;;;;5061449;28;20033;-57
2022/03/31 02:12:03;;;;;;;5.15;0.50;;;;;;;;;;5064917;28;20041;-57
2022/03/31 02:14:28;;;;;;;4.05;0.75;;;;;;;;;;5061110;28;20044;-57
2022/03/31 02:16:55;;;;;;;12.70;1.55;;;;;;;;;;5068133;28;20111;-57
2022/03/31 02:19:21;;;;;;;1.90;0.52;;;;;;;;;;5063267;28;20066;-57
2022/03/31 02:21:46;;;;;;;4.90;0.95;;;;;;;;;;5064797;28;20090;-57
2022/03/31 02:24:13;;;;;;;7.45;0.68;;;;;;;;;;5063803;28;20032;-57
2022/03/31 02:26:39;;;;;;;2.33;0.68;;;;;;;;;;5062187;28;20895;-57
2022/03/31 02:29:04;;;;;;;10.10;0.80;;;;;;;;;;5065362;28;20045;-57
2022/03/31 02:31:31;;;;;;;7.22;0.73;;;;;;;;;;5066257;28;20032;-58
2022/03/31 02:33:57;;;;;;;6.70;1.08;;;;;;;;;;5064833;28;20099;-56
2022/03/31 02:36:23;;;;;;;4.30;0.82;;;;;;;;;;5064415;28;20623;-57
2022/03/31 02:38:49;;;;;;;2.90;0.40;;;;;;;;;;5065361;28;20024;-57
2022/03/31 02:41:14;;;;;;;3.90;0.50;;;;;;;;;;5062465;28;20043;-57
2022/03/31 02:43:40;;;;;;;1.55;0.50;;;;;;;;;;5062884;28;20125;-57
2022/03/31 02:46:06;;;;;;;7.68;0.50;;;;;;;;;;5059426;28;20028;-57
2022/03/31 02:48:31;;;;;;;2.08;0.60;;;;;;;;;;5062131;28;20044;-57
2022/03/31 02:50:57;;;;;;;7.80;0.60;;;;;;;;;;5058664;28;20389;-57
2022/03/31 02:56:06;;;;;;;1.67;0.45;;;;;;;;;;5065782;28;20089;-57
2022/03/31 02:58:32;;;;;;;3.55;0.70;;;;;;;;;;5064694;28;20028;-56
2022/03/31 03:00:58;;;;;;;2.80;0.60;;;;;;;;;;5063277;28;20403;-57
2022/03/31 03:03:23;;;;;;;9.40;1.05;;;;;;;;;;5063306;28;20052;-57
2022/03/31 03:05:49;;;;;;;5.53;1.13;;;;;;;;;;5067411;28;20111;-57
2022/03/31 03:08:15;;;;;;;2.67;0.50;;;;;;;;;;5063035;28;20052;-57
2022/03/31 03:10:42;;;;;;;1.85;0.68;;;;;;;;;;5067679;28;20047;-57
2022/03/31 03:13:08;;;;;;;0.95;0.47;;;;;;;;;;5063475;28;20024;-57
2022/03/31 03:15:33;;;;;;;2.55;0.45;;;;;;;;;;5061054;28;20094;-57
2022/03/31 03:17:59;;;;;;;7.93;0.73;;;;;;;;;;5062722;28;20029;-57
2022/03/31 03:20:24;;;;;;;4.88;0.80;;;;;;;;;;5067606;28;20448;-56
2022/03/31 03:22:53;;;;;;;9.27;0.90;;;;;;;;;;5068128;28;20490;-57
2022/03/31 03:25:20;;;;;;;2.65;0.90;;;;;;;;;;5066961;28;20367;-57
2022/03/31 03:27:48;;;;;;;5.93;0.50;;;;;;;;;;5066453;28;20036;-57
2022/03/31 03:30:15;;;;;;;8.32;0.60;;;;;;;;;;5062972;28;20032;-57
2022/03/31 03:32:41;;;;;;;3.40;0.60;;;;;;;;;;5066577;28;20048;-57
2022/03/31 03:35:09;;;;;;;6.03;1.38;;;;;;;;;;5062967;28;20024;-57
2022/03/31 03:37:38;;;;;;;5.80;0.90;;;;;;;;;;5061664;28;20024;-57
2022/03/31 03:40:06;;;;;;;1.63;0.60;;;;;;;;;;5064748;28;20132;-56
2022/03/31 03:42:32;;;;;;;4.72;0.65;;;;;;;;;;5066845;28;20028;-57
2022/03/31 03:44:58;;;;;;;0.73;0.50;;;;;;;;;;5060997;28;20064;-57
2022/03/31 03:47:24;;;;;;;5.05;0.98;;;;;;;;;;5062263;28;20036;-57
2022/03/31 03:49:50;;;;;;;6.38;0.90;;;;;;;;;;5062491;28;20043;-58
2022/03/31 03:52:16;;;;;;;6.28;0.90;;;;;;;;;;5064098;28;20039;-57
2022/03/31 03:54:42;;;;;;;5.65;1.25;;;;;;;;;;5070256;28;20060;-57
2022/03/31 03:57:07;;;;;;;4.63;1.20;;;;;;;;;;5065257;28;20106;-58
2022/03/31 03:59:33;;;;;;;6.72;1.00;;;;;;;;;;5066837;28;20063;-57
2022/03/31 04:01:59;;;;;;;5.90;1.30;;;;;;;;;;5066242;28;20739;-57
2022/03/31 04:04:26;;;;;;;14.85;2.00;;;;;;;;;;5065946;28;20039;-57
2022/03/31 04:06:51;;;;;;;3.00;1.10;;;;;;;;;;5061639;28;20777;-57
2022/03/31 04:09:17;;;;;;;9.57;0.70;;;;;;;;;;5067481;28;20162;-57
2022/03/31 04:11:42;;;;;;;6.82;0.80;;;;;;;;;;5065634;28;20071;-57
2022/03/31 04:14:08;;;;;;;6.13;0.50;;;;;;;;;;5064834;28;20504;-57
2022/03/31 04:16:34;;;;;;;2.45;0.50;;;;;;;;;;5062750;28;20120;-57
2022/03/31 04:18:59;;;;;;;6.75;0.70;;;;;;;;;;5064801;28;20489;-57
2022/03/31 04:21:25;;;;;;;4.97;1.23;;;;;;;;;;5073853;28;20032;-57
2022/03/31 04:23:50;;;;;;;4.97;1.00;;;;;;;;;;5065004;28;20552;-57
2022/03/31 04:26:16;;;;;;;5.35;0.95;;;;;;;;;;5061381;28;20536;-58
2022/03/31 04:28:41;;;;;;;6.18;1.35;;;;;;;;;;5081042;28;20036;-57
2022/03/31 04:31:07;;;;;;;10.75;0.80;;;;;;;;;;5065826;28;20031;-57
2022/03/31 04:33:32;;;;;;;4.03;1.02;;;;;;;;;;5067624;28;20035;-57
2022/03/31 04:35:58;;;;;;;1.95;1.25;;;;;;;;;;5066866;28;20509;-57
2022/03/31 04:38:23;;;;;;;5.88;0.65;;;;;;;;;;5064361;28;20435;-56
2022/03/31 04:40:49;;;;;;;1.92;0.57;;;;;;;;;;5062843;28;20035;-56
2022/03/31 04:43:14;;;;;;;6.45;1.00;;;;;;;;;;5066292;28;20081;-57
2022/03/31 04:45:41;;;;;;;7.32;0.88;;;;;;;;;;5067667;28;20099;-57
2022/03/31 04:48:07;;;;;;;2.45;0.80;;;;;;;;;;5066213;28;20509;-57
2022/03/31 04:50:33;;;;;;;2.08;0.80;;;;;;;;;;5061377;28;20131;-57
2022/03/31 04:52:58;;;;;;;5.75;1.00;;;;;;;;;;5065915;28;20059;-57
2022/03/31 04:55:25;;;;;;;9.43;1.23;;;;;;;;;;5065490;28;20029;-58
2022/03/31 04:57:51;;;;;;;5.45;1.02;;;;;;;;;;5060035;28;20050;-57
2022/03/31 05:00:17;;;;;;;1.02;0.63;;;;;;;;;;5064208;28;20398;-57
2022/03/31 05:02:42;;;;;;;1.50;0.73;;;;;;;;;;5062406;28;20043;-57
2022/03/31 05:05:08;;;;;;;8.70;1.63;;;;;;;;;;5069809;28;20036;-57
2022/03/31 05:07:34;;;;;;;2.10;0.80;;;;;;;;;;5061419;28;20438;-57
2022/03/31 05:09:59;;;;;;;8.85;1.27;;;;;;;;;;5063833;28;20024;-57
2022/03/31 05:12:25;;;;;;;5.75;0.88;;;;;;;;;;5065727;28;20037;-57
2022/03/31 05:14:51;;;;;;;7.35;1.00;;;;;;;;;;5064386;28;20502;-57
2022/03/31 05:17:16;;;;;;;6.88;1.30;;;;;;;;;;5064704;28;20081;-57
2022/03/31 05:19:42;;;;;;;7.28;0.98;;;;;;;;;;5066174;28;20487;-57
2022/03/31 05:22:07;;;;;;;3.88;0.82;;;;;;;;;;5067474;28;20522;-57
2022/03/31 05:24:33;;;;;;;5.47;1.00;;;;;;;;;;5066230;28;20506;-57
2022/03/31 05:26:58;;;;;;;4.82;0.70;;;;;;;;;;5063523;28;20104;-57
2022/03/31 05:29:24;;;;;;;20.05;1.25;;;;;;;;;;5064189;28;20490;-57
2022/03/31 05:31:50;;;;;;;5.95;0.70;;;;;;;;;;5063767;28;20028;-57
2022/03/31 05:34:16;;;;;;;5.00;0.77;;;;;;;;;;5063393;28;20491;-57
2022/03/31 05:36:41;;;;;;;10.00;1.17;;;;;;;;;;5064966;28;20047;-57
2022/03/31 05:39:07;;;;;;;19.42;1.63;;;;;;;;;;5066330;28;20406;-58
2022/03/31 05:41:33;;;;;;;14.57;1.33;;;;;;;;;;5064481;28;20040;-56
2022/03/31 05:43:59;;;;;;;4.65;0.80;;;;;;;;;;5065102;28;20047;-57
2022/03/31 05:46:25;;;;;;;9.23;1.20;;;;;;;;;;5065462;28;20029;-57
2022/03/31 05:48:51;;;;;;;6.78;1.30;;;;;;;;;;5067035;28;20491;-57
2022/03/31 05:51:17;;;;;;;6.88;0.80;;;;;;;;;;5058243;28;20029;-57
2022/03/31 05:53:43;;;;;;;7.95;1.00;;;;;;;;;;5061792;28;20028;-57
2022/03/31 05:56:09;;;;;;;6.93;0.60;;;;;;;;;;5062873;28;20588;-57
2022/03/31 05:58:35;;;;;;;2.17;0.70;;;;;;;;;;5063828;28;20029;-57
2022/03/31 06:01:00;;;;;;;14.60;1.27;;;;;;;;;;5062426;28;20521;-57
2022/03/31 06:03:26;;;;;;;8.18;1.35;;;;;;;;;;5063444;28;20020;-57
2022/03/31 06:05:52;;;;;;;9.43;1.00;;;;;;;;;;5067195;28;20098;-57
2022/03/31 06:08:18;;;;;;;3.65;0.75;;;;;;;;;;5064003;28;20051;-57
2022/03/31 06:10:44;;;;;;;1.40;0.90;;;;;;;;;;5066194;28;20110;-57
2022/03/31 06:13:11;;;;;;;6.45;0.98;;;;;;;;;;5061041;28;20116;-57
2022/03/31 06:15:37;;;;;;;4.63;0.93;;;;;;;;;;5059689;28;20051;-57
2022/03/31 06:18:04;;;;;;;5.80;1.10;;;;;;;;;;5064719;28;20310;-58
2022/03/31 06:20:31;;;;;;;4.82;0.85;;;;;;;;;;5058598;28;20020;-57
2022/03/31 06:22:57;;;;;;;5.85;1.05;;;;;;;;;;5055127;28;20062;-57
2022/03/31 06:25:23;;;;;;;6.45;0.80;;;;;;;;;;5064669;28;20845;-57
2022/03/31 06:27:49;;;;;;;7.00;1.05;;;;;;;;;;5067088;28;20061;-57
2022/03/31 06:30:15;;;;;;;8.05;1.00;;;;;;;;;;5063179;28;20024;-57
2022/03/31 06:32:41;;;;;;;10.75;1.42;;;;;;;;;;5067601;28;20033;-57
2022/03/31 06:35:11;;;;;;;3.90;0.88;;;;;;;;;;5064198;28;20036;-57
2022/03/31 06:37:39;;;;;;;3.25;0.95;;;;;;;;;;5058113;28;20025;-57
2022/03/31 06:40:05;;;;;;;1.50;0.90;;;;;;;;;;5062069;28;20020;-57
2022/03/31 06:42:31;;;;;;;7.47;1.95;;;;;;;;;;5043087;28;20059;-57
2022/03/31 06:44:56;;;;;;;3.90;0.80;;;;;;;;;;5064799;28;20041;-57
2022/03/31 06:47:22;;;;;;;7.20;1.20;;;;;;;;;;5063573;28;20041;-57
2022/03/31 06:49:48;;;;;;;2.63;0.63;;;;;;;;;;5068376;28;20044;-57
2022/03/31 06:52:13;;;;;;;4.43;0.85;;;;;;;;;;5060157;28;20036;-57
2022/03/31 06:54:39;;;;;;;7.22;0.93;;;;;;;;;;5066627;28;20085;-56
2022/03/31 06:57:04;;;;;;;2.50;0.70;;;;;;;;;;5067023;28;20119;-57
2022/03/31 06:59:31;;;;;;;12.52;1.52;;;;;;;;;;5064662;28;20044;-57
2022/03/31 07:01:57;;;;;;;1.67;0.80;;;;;;;;;;5069831;28;20043;-57
2022/03/31 07:04:23;;;;;;;5.43;0.90;;;;;;;;;;5066930;28;20032;-57
2022/03/31 07:06:48;;;;;;;8.63;1.02;;;;;;;;;;5072747;28;20422;-57
2022/03/31 07:09:14;;;;;;;7.50;1.10;;;;;;;;;;5071348;28;20048;-57
2022/03/31 07:11:39;;;;;;;7.45;1.25;;;;;;;;;;5065350;28;20027;-57
2022/03/31 07:14:05;;;;;;;12.00;1.60;;;;;;;;;;5068663;28;20055;-54
2022/03/31 07:16:31;;;;;;;5.28;1.42;;;;;;;;;;5070506;28;20120;-57
2022/03/31 07:18:58;;;;;;;4.95;0.95;;;;;;;;;;5065518;28;20037;-57
2022/03/31 07:21:24;;;;;;;6.70;1.20;;;;;;;;;;5065789;28;20060;-57
2022/03/31 07:23:53;;;;;;;9.63;2.10;;;;;;;;;;5067838;28;20425;-57
2022/03/31 07:26:19;;;;;;;13.45;1.08;;;;;;;;;;5067228;28;20509;-56
2022/03/31 07:28:46;;;;;;;3.30;1.15;;;;;;;;;;5065296;28;20453;-57
2022/03/31 07:31:11;;;;;;;17.83;1.20;;;;;;;;;;5065532;28;20056;-57
2022/03/31 07:33:37;;;;;;;3.53;0.90;;;;;;;;;;5062896;28;20482;-57
2022/03/31 07:36:03;;;;;;;11.95;1.15;;;;;;;;;;5072267;28;20248;-57
2022/03/31 07:38:29;;;;;;;3.95;0.80;;;;;;;;;;5069965;28;20040;-56
2022/03/31 07:40:55;;;;;;;8.25;1.20;;;;;;;;;;5068597;28;20031;-57
2022/03/31 07:43:22;;;;;;;4.05;0.85;;;;;;;;;;5065815;28;20531;-57
2022/03/31 07:45:47;;;;;;;9.57;1.20;;;;;;;;;;5065622;28;20504;-57
2022/03/31 07:48:15;;;;;;;18.35;1.33;;;;;;;;;;5067506;28;20052;-55
2022/03/31 07:50:41;;;;;;;4.20;0.73;;;;;;;;;;5064258;28;20067;-56
2022/03/31 07:53:08;;;;;;;6.03;1.17;;;;;;;;;;5071977;28;20032;-57
2022/03/31 07:55:34;;;;;;;2.45;0.98;;;;;;;;;;5061863;28;20040;-57
2022/03/31 07:57:59;;;;;;;8.20;1.63;;;;;;;;;;5069916;28;20076;-56
2022/03/31 08:00:25;;;;;;;3.75;0.60;;;;;;;;;;5069170;28;20032;-57
2022/03/31 08:02:52;;;;;;;9.77;1.48;;;;;;;;;;5065465;28;20049;-57
2022/03/31 08:05:20;;;;;;;4.70;1.00;;;;;;;;;;5069500;28;20028;-57
2022/03/31 08:07:46;;;;;;;12.30;0.95;;;;;;;;;;5063027;28;20568;-57
2022/03/31 08:10:12;;;;;;;3.72;0.73;;;;;;;;;;5067140;28;20070;-57
2022/03/31 08:12:40;;;;;;;7.65;0.50;;;;;;;;;;5068574;28;20522;-57
2022/03/31 08:15:07;;;;;;;13.20;1.50;;;;;;;;;;5066125;28;20224;-58
2022/03/31 08:17:33;;;;;;;7.70;0.60;;;;;;;;;;5071097;28;20036;-57
2022/03/31 08:20:00;;;;;;;7.50;1.10;;;;;;;;;;5068827;28;20032;-57
2022/03/31 08:22:26;;;;;;;3.75;0.77;;;;;;;;;;5066605;28;20020;-57
2022/03/31 08:24:53;;;;;;;6.20;1.00;;;;;;;;;;5068573;28;20139;-57
2022/03/31 08:27:19;;;;;;;5.10;0.65;;;;;;;;;;5067607;28;20020;-57
2022/03/31 08:29:45;;;;;;;1.40;0.60;;;;;;;;;;5066837;28;20082;-57
2022/03/31 08:32:12;;;;;;;6.65;0.77;;;;;;;;;;5068305;28;20047;-57
2022/03/31 08:34:38;;;;;;;4.05;0.52;;;;;;;;;;5068717;28;20433;-57
2022/03/31 08:37:04;;;;;;;3.33;0.90;;;;;;;;;;5068544;28;20029;-57
2022/03/31 08:39:30;;;;;;;10.68;0.73;;;;;;;;;;5061562;28;20021;-51
2022/03/31 08:41:56;;;;;;;5.75;0.70;;;;;;;;;;5068286;28;20138;-49
2022/03/31 08:44:22;;;;;;;2.47;1.00;;;;;;;;;;5066447;28;20052;-51
2022/03/31 08:46:49;;;;;;;9.98;1.65;;;;;;;;;;5061051;28;20032;-49
2022/03/31 08:49:16;;;;;;;2.10;1.00;;;;;;;;;;5065003;28;20046;-50
2022/03/31 08:51:46;;;;;;;10.57;1.70;;;;;;;;;;5062757;28;20415;-49
2022/03/31 08:54:11;;;;;;;7.60;0.70;;;;;;;;;;5068099;28;20024;-49
2022/03/31 08:56:39;;;;;;;7.57;1.05;;;;;;;;;;5067149;28;20078;-49
2022/03/31 08:59:07;;;;;;;10.43;2.17;;;;;;;;;;5058172;28;20048;-49
2022/03/31 09:01:33;;;;;;;10.07;1.77;;;;;;;;;;5070482;28;20094;-51
2022/03/31 09:04:00;;;;;;;13.13;1.20;;;;;;;;;;5067088;28;20629;-51
2022/03/31 09:06:31;;;;;;;1.48;0.75;;;;;;;;;;5065966;28;20422;-49
2022/03/31 09:09:02;;;;;;;4.30;0.50;;;;;;;;;;5068027;28;20103;-52
2022/03/31 09:11:37;;;;;;;7.43;0.82;;;;;;;;;;5063928;28;20035;-50
2022/03/31 09:14:04;;;;;;;6.65;1.13;;;;;;;;;;5062455;28;20089;-51
2022/03/31 09:16:36;;;;;;;12.85;0.88;;;;;;;;;;5062182;28;20056;-50
2022/03/31 09:19:11;;;;;;;10.00;0.70;;;;;;;;;;5062071;28;20436;-50
2022/03/31 09:21:57;;;;;;;5.25;1.00;;;;;;;;;;5066687;28;20032;-52
2022/03/31 09:24:24;;;;;;;3.75;0.90;;;;;;;;;;5067387;28;20073;-51
2022/03/31 09:26:50;;;;;;;3.78;0.80;;;;;;;;;;5068635;28;20086;-50
2022/03/31 09:29:19;;;;;;;3.53;0.40;;;;;;;;;;5065847;28;20032;-50
2022/03/31 09:31:45;;;;;;;5.65;0.60;;;;;;;;;;5067146;28;20084;-51
2022/03/31 09:34:13;;;;;;;4.07;0.73;;;;;;;;;;5067176;28;20035;-50
2022/03/31 09:36:42;;;;;;;2.13;0.50;;;;;;;;;;5067097;28;20036;-50
2022/03/31 09:39:13;;;;;;;4.53;0.95;;;;;;;;;;5060982;28;20040;-50
2022/03/31 09:41:41;;;;;;;5.32;0.88;;;;;;;;;;5066786;28;20044;-50
2022/03/31 09:44:21;;;;;;;11.43;1.55;;;;;;;;;;5066488;28;20056;-51
2022/03/31 09:46:47;;;;;;;6.18;0.95;;;;;;;;;;5063822;28;20032;-50
2022/03/31 09:49:21;;;;;;;7.30;0.95;;;;;;;;;;5064927;28;20482;-50
2022/03/31 09:51:51;;;;;;;5.97;0.73;;;;;;;;;;5058658;28;20495;-50
2022/03/31 09:54:18;;;;;;;7.03;0.60;;;;;;;;;;5067785;28;20020;-50
2022/03/31 09:56:44;;;;;;;8.77;0.68;;;;;;;;;;5064177;28;20097;-55
2022/03/31 09:59:12;;;;;;;4.68;0.65;;;;;;;;;;5054523;28;20071;-50
2022/03/31 10:01:39;;;;;;;6.75;0.80;;;;;;;;;;5065235;28;20127;-52
2022/03/31 10:04:10;;;;;;;3.53;0.82;;;;;;;;;;5064735;28;20563;-51
2022/03/31 10:06:40;;;;;;;6.37;0.90;;;;;;;;;;5062188;28;20070;-53
2022/03/31 10:09:08;;;;;;;11.05;1.00;;;;;;;;;;5066829;28;20059;-52
2022/03/31 10:11:38;;;;;;;9.52;0.82;;;;;;;;;;5064812;28;20032;-50
2022/03/31 10:14:25;;;;;;;6.00;0.55;;;;;;;;;;5061946;28;20020;-51
2022/03/31 10:16:57;;;;;;;8.88;0.88;;;;;;;;;;5068192;28;20090;-50
2022/03/31 10:19:27;;;;;;;2.72;0.82;;;;;;;;;;5064515;28;20037;-49
2022/03/31 10:22:04;;;;;;;5.07;0.75;;;;;;;;;;5061877;28;20514;-50
2022/03/31 10:24:46;;;;;;;13.75;0.77;;;;;;;;;;5064111;28;20029;-50
2022/03/31 10:27:35;;;;;;;3.60;2.28;;;;;;;;;;5063879;28;20052;-50
2022/03/31 10:30:13;;;;;;;6.60;2.97;;;;;;;;;;5067629;28;20036;-50
2022/03/31 10:33:03;;;;;;;7.13;0.68;;;;;;;;;;5066543;28;20030;-52
2022/03/31 10:35:35;;;;;;;4.15;0.40;;;;;;;;;;5066008;28;20513;-50
2022/03/31 10:38:17;;;;;;;3.28;0.60;;;;;;;;;;5066594;28;20398;-50
2022/03/31 10:40:46;;;;;;;7.00;0.88;;;;;;;;;;5066531;28;20170;-51
2022/03/31 10:43:32;;;;;;;5.80;0.57;;;;;;;;;;5059863;28;20059;-49
2022/03/31 10:46:00;;;;;;;2.58;0.50;;;;;;;;;;5068205;28;20032;-49
2022/03/31 10:48:30;;;;;;;1.08;0.50;;;;;;;;;;5064606;28;20028;-49
2022/03/31 10:51:07;;;;;;;1.33;0.40;;;;;;;;;;5061985;28;20056;-49
2022/03/31 10:53:35;;;;;;;12.20;1.13;;;;;;;;;;5065493;28;20538;-50
2022/03/31 10:56:03;;;;;;;3.70;0.43;;;;;;;;;;5066859;28;20111;-49
2022/03/31 10:58:30;;;;;;;4.18;0.55;;;;;;;;;;5063451;28;20028;-51
2022/03/31 11:01:06;;;;;;;4.70;1.00;;;;;;;;;;5066845;28;20036;-51
2022/03/31 11:03:31;;;;;;;2.78;0.88;;;;;;;;;;5067958;28;20017;-50
2022/03/31 11:06:00;;;;;;;2.88;0.50;;;;;;;;;;5068560;28;20036;-51
2022/03/31 11:08:26;;;;;;;8.88;0.77;;;;;;;;;;5068353;28;20076;-50
2022/03/31 11:10:53;;;;;;;1.95;0.60;;;;;;;;;;5064691;28;20474;-50
2022/03/31 11:13:30;;;;;;;8.13;1.00;;;;;;;;;;5067851;28;20119;-52
2022/03/31 11:15:56;;;;;;;5.18;0.70;;;;;;;;;;5069053;28;20032;-50
2022/03/31 11:18:22;;;;;;;3.67;0.95;;;;;;;;;;5064826;28;20188;-50
2022/03/31 11:20:54;;;;;;;8.35;0.75;;;;;;;;;;5066021;28;20107;-51
2022/03/31 11:23:20;;;;;;;4.25;0.70;;;;;;;;;;5068808;28;20042;-50
2022/03/31 11:25:46;;;;;;;2.58;0.52;;;;;;;;;;5068094;28;20028;-51
2022/03/31 11:28:13;;;;;;;8.63;0.68;;;;;;;;;;5063784;28;20036;-50
2022/03/31 11:30:38;;;;;;;3.83;0.70;;;;;;;;;;5067821;28;20067;-50
2022/03/31 11:33:05;;;;;;;4.63;0.57;;;;;;;;;;5065314;28;20467;-51
2022/03/31 11:35:31;;;;;;;2.53;0.60;;;;;;;;;;5068044;28;20123;-52
2022/03/31 11:38:02;;;;;;;3.05;0.50;;;;;;;;;;5063348;28;20339;-52
2022/03/31 11:40:36;;;;;;;4.28;0.70;;;;;;;;;;5070479;28;20024;-52
2022/03/31 11:43:05;;;;;;;9.30;0.60;;;;;;;;;;5072147;28;20024;-54
2022/03/31 11:45:37;;;;;;;6.50;0.73;;;;;;;;;;5064846;28;20292;-52
2022/03/31 11:48:14;;;;;;;2.10;0.63;;;;;;;;;;5065962;28;20032;-53
2022/03/31 11:50:58;;;;;;;4.00;0.73;;;;;;;;;;5063342;28;20092;-50
2022/03/31 11:53:25;;;;;;;1.48;0.57;;;;;;;;;;5063338;28;20472;-51
2022/03/31 11:56:21;;;;;;;4.45;0.95;;;;;;;;;;5066895;28;20024;-51
2022/03/31 11:58:48;;;;;;;6.45;1.10;;;;;;;;;;5066108;28;20056;-50
2022/03/31 12:01:22;;;;;;;9.68;0.80;;;;;;;;;;5066234;28;20036;-50
2022/03/31 12:03:48;;;;;;;5.93;1.13;;;;;;;;;;5065762;28;20028;-52
2022/03/31 12:06:16;;;;;;;5.70;0.90;;;;;;;;;;5067142;28;20036;-50
2022/03/31 12:08:43;;;;;;;7.20;1.23;;;;;;;;;;5064877;28;20033;-50
2022/03/31 12:11:12;;;;;;;5.63;0.98;;;;;;;;;;5067239;28;20404;-50
2022/03/31 12:13:56;;;;;;;7.68;1.38;;;;;;;;;;5064653;28;20553;-50
2022/03/31 12:16:22;;;;;;;3.63;0.65;;;;;;;;;;5066122;28;20674;-50
2022/03/31 12:18:56;;;;;;;2.28;0.82;;;;;;;;;;5065475;28;20050;-50
2022/03/31 12:21:24;;;;;;;7.22;0.90;;;;;;;;;;5067753;28;20036;-50
2022/03/31 12:23:50;;;;;;;7.00;0.85;;;;;;;;;;5061611;28;20040;-50
2022/03/31 12:26:19;;;;;;;7.00;1.05;;;;;;;;;;5067407;28;20031;-50
2022/03/31 12:28:46;;;;;;;6.55;2.03;;;;;;;;;;5067149;28;20029;-50
2022/03/31 12:31:23;;;;;;;9.25;2.03;;;;;;;;;;5068039;28;20022;-51
2022/03/31 12:33:51;;;;;;;6.18;1.80;;;;;;;;;;5067391;28;20043;-50
2022/03/31 12:36:22;;;;;;;3.13;1.10;;;;;;;;;;5067398;28;20035;-54
2022/03/31 12:38:52;;;;;;;3.70;1.40;;;;;;;;;;5067688;28;20040;-50
2022/03/31 12:41:34;;;;;;;1.20;0.68;;;;;;;;;;5050174;28;20601;-53
2022/03/31 12:44:16;;;;;;;3.67;1.00;;;;;;;;;;5068282;28;20544;-52
2022/03/31 12:46:53;;;;;;;5.22;1.85;;;;;;;;;;5068065;28;20036;-53
2022/03/31 12:49:24;;;;;;;3.85;1.27;;;;;;;;;;5059902;28;20039;-52
2022/03/31 12:51:52;;;;;;;3.90;0.80;;;;;;;;;;5062978;28;20803;-50
2022/03/31 12:54:57;;;;;;;7.32;1.08;;;;;;;;;;5065643;28;20077;-52
2022/03/31 12:57:25;;;;;;;3.00;0.95;;;;;;;;;;5040185;28;20127;-52
2022/03/31 13:00:12;;;;;;;4.72;0.85;;;;;;;;;;5067554;28;20444;-51
2022/03/31 13:02:39;;;;;;;3.95;0.98;;;;;;;;;;5067166;28;20046;-51
2022/03/31 13:05:06;;;;;;;2.30;1.10;;;;;;;;;;5066722;28;20043;-50
2022/03/31 13:07:32;;;;;;;5.20;1.13;;;;;;;;;;5067157;28;20529;-51
2022/03/31 13:09:59;;;;;;;4.70;1.00;;;;;;;;;;5062734;28;20123;-50
2022/03/31 13:12:28;;;;;;;11.90;1.00;;;;;;;;;;5065214;28;20090;-50
2022/03/31 13:14:54;;;;;;;2.08;1.02;;;;;;;;;;5065304;28;20043;-50
2022/03/31 13:17:20;;;;;;;4.82;1.30;;;;;;;;;;5067904;28;20398;-50
2022/03/31 13:19:47;;;;;;;5.32;1.48;;;;;;;;;;5061677;28;20032;-51
2022/03/31 13:22:16;;;;;;;5.35;1.33;;;;;;;;;;5067216;28;20386;-50
2022/03/31 13:24:42;;;;;;;9.35;1.30;;;;;;;;;;5070467;28;20021;-50
2022/03/31 13:27:08;;;;;;;10.45;1.70;;;;;;;;;;5067023;28;20031;-50
2022/03/31 13:29:34;;;;;;;5.90;1.13;;;;;;;;;;5064696;28;20514;-50
2022/03/31 13:32:00;;;;;;;10.45;1.80;;;;;;;;;;5060705;28;20127;-50
2022/03/31 13:34:29;;;;;;;2.45;1.20;;;;;;;;;;5067577;28;20119;-50
2022/03/31 13:37:01;;;;;;;4.72;1.48;;;;;;;;;;5066664;28;20108;-50
2022/03/31 13:39:28;;;;;;;5.50;1.33;;;;;;;;;;5067206;28;20025;-50
2022/03/31 13:41:54;;;;;;;4.63;1.45;;;;;;;;;;5067167;28;20119;-50
2022/03/31 13:44:20;;;;;;;4.10;1.45;;;;;;;;;;5065677;28;20205;-51
2022/03/31 13:46:46;;;;;;;4.38;1.70;;;;;;;;;;5064390;28;20059;-50
2022/03/31 13:49:13;;;;;;;4.03;1.50;;;;;;;;;;5063603;28;20027;-52
2022/03/31 13:51:43;;;;;;;5.43;1.48;;;;;;;;;;5056166;28;20075;-50
2022/03/31 13:54:08;;;;;;;5.68;1.40;;;;;;;;;;5065721;28;20103;-51
2022/03/31 13:56:39;;;;;;;6.55;1.52;;;;;;;;;;5061598;28;20081;-55
2022/03/31 14:01:53;;;;;;;8.13;1.48;;;;;;;;;;5064512;28;20047;-53
2022/03/31 14:04:20;;;;;;;9.43;1.88;;;;;;;;;;5060029;28;20028;-52
2022/03/31 14:06:46;;;;;;;8.95;1.27;;;;;;;;;;5085136;28;20032;-53
2022/03/31 14:09:15;;;;;;;4.00;1.10;;;;;;;;;;5065329;28;20032;-53
2022/03/31 14:11:41;;;;;;;8.05;2.05;;;;;;;;;;5062530;28;20040;-50
2022/03/31 14:14:12;;;;;;;9.90;1.48;;;;;;;;;;5048132;28;20040;-54
2022/03/31 14:16:40;;;;;;;7.68;1.42;;;;;;;;;;5064719;28;20090;-53
2022/03/31 14:19:11;;;;;;;3.35;1.23;;;;;;;;;;5065207;28;20033;-51
2022/03/31 14:21:38;;;;;;;2.43;0.90;;;;;;;;;;5066622;28;20036;-52
2022/03/31 14:24:05;;;;;;;6.72;1.02;;;;;;;;;;5065435;28;20119;-53
2022/03/31 14:26:31;;;;;;;4.47;1.10;;;;;;;;;;5065085;28;20094;-53
2022/03/31 14:28:57;;;;;;;4.85;1.38;;;;;;;;;;5060044;28;20109;-53
2022/03/31 14:31:25;;;;;;;11.25;1.48;;;;;;;;;;5065012;28;20467;-53
2022/03/31 14:33:55;;;;;;;3.75;1.23;;;;;;;;;;5062366;28;20040;-51
2022/03/31 14:36:22;;;;;;;6.28;1.63;;;;;;;;;;5061450;28;20040;-54
2022/03/31 14:38:48;;;;;;;7.72;1.50;;;;;;;;;;5059255;28;20064;-54
2022/03/31 14:41:16;;;;;;;5.70;1.00;;;;;;;;;;5066431;28;20024;-52
2022/03/31 14:43:45;;;;;;;3.42;1.15;;;;;;;;;;5057339;28;20094;-54
2022/03/31 14:46:13;;;;;;;3.65;1.15;;;;;;;;;;5061210;28;20537;-54
2022/03/31 14:48:39;;;;;;;5.72;1.40;;;;;;;;;;5064601;28;20063;-55
2022/03/31 14:51:06;;;;;;;1.27;0.77;;;;;;;;;;5063248;28;20059;-56